Time;durP1;ratioP1;P1;durP2;ratioP2;P2;SDS_P1;SDS_P2;PMS_P1;PMS_P2;Temp;Humidity;BMP_temperature;BMP_pressure;BME280_temperature;BME280_humidity;BME280_pressure;Samples;Min_cycle;Max_cycle;Signal;HPM_P1;HPM_P2
2022/06/22 00:01:45;;;;;;;2.43;2.23;;;;;;;;;;5113869;28;20440;-70
2022/06/22 00:04:17;;;;;;;4.37;2.67;;;;;;;;;;5114029;28;20527;-70
2022/06/22 00:06:46;;;;;;;4.30;2.10;;;;;;;;;;5114147;28;20526;-70
2022/06/22 00:09:22;;;;;;;6.57;2.90;;;;;;;;;;5113870;28;20582;-69
2022/06/22 00:11:49;;;;;;;5.33;3.07;;;;;;;;;;5114469;28;20437;-69
2022/06/22 00:14:19;;;;;;;4.70;2.20;;;;;;;;;;5113563;28;20440;-68
2022/06/22 00:16:50;;;;;;;3.33;1.90;;;;;;;;;;5114024;28;20438;-69
2022/06/22 00:19:21;;;;;;;4.60;2.47;;;;;;;;;;5114259;28;20475;-69
2022/06/22 00:21:50;;;;;;;4.90;2.20;;;;;;;;;;5114385;28;20428;-69
2022/06/22 00:24:36;;;;;;;5.20;2.17;;;;;;;;;;5113824;28;20445;-69
2022/06/22 00:27:14;;;;;;;5.27;2.50;;;;;;;;;;5114236;28;20431;-68
2022/06/22 00:29:42;;;;;;;2.60;2.40;;;;;;;;;;5113770;28;20554;-69
2022/06/22 00:32:18;;;;;;;5.10;2.53;;;;;;;;;;5113596;28;20533;-69
2022/06/22 00:34:46;;;;;;;3.70;2.30;;;;;;;;;;5113564;28;20959;-70
2022/06/22 00:37:15;;;;;;;6.50;2.20;;;;;;;;;;5113813;28;20530;-70
2022/06/22 00:39:43;;;;;;;3.00;2.30;;;;;;;;;;5113371;28;20453;-70
2022/06/22 00:42:24;;;;;;;7.20;2.60;;;;;;;;;;5113463;28;20478;-69
2022/06/22 00:44:57;;;;;;;4.30;2.80;;;;;;;;;;5113773;28;20419;-69
2022/06/22 00:47:26;;;;;;;3.80;2.60;;;;;;;;;;5113349;28;20571;-70
2022/06/22 00:49:55;;;;;;;6.20;3.17;;;;;;;;;;5113548;28;20805;-70
2022/06/22 00:52:28;;;;;;;5.00;3.20;;;;;;;;;;5113352;28;20444;-70
2022/06/22 00:54:56;;;;;;;4.90;2.50;;;;;;;;;;5113808;28;20521;-70
2022/06/22 00:57:25;;;;;;;2.97;2.40;;;;;;;;;;5114925;28;20961;-70
2022/06/22 00:59:56;;;;;;;5.53;2.87;;;;;;;;;;5117083;28;20538;-70
2022/06/22 01:02:28;;;;;;;5.90;2.70;;;;;;;;;;5117634;28;20519;-69
2022/06/22 01:04:57;;;;;;;5.13;2.70;;;;;;;;;;5117494;28;20430;-69
2022/06/22 01:07:28;;;;;;;3.40;2.53;;;;;;;;;;5117067;28;20445;-70
2022/06/22 01:10:01;;;;;;;9.83;3.50;;;;;;;;;;5117199;28;20502;-70
2022/06/22 01:12:32;;;;;;;5.57;3.23;;;;;;;;;;5117551;28;20527;-71
2022/06/22 01:15:06;;;;;;;7.07;3.00;;;;;;;;;;5117116;28;20431;-72
2022/06/22 01:17:36;;;;;;;5.03;4.10;;;;;;;;;;5117400;28;20498;-70
2022/06/22 01:20:07;;;;;;;6.93;3.57;;;;;;;;;;5117052;28;20825;-70
2022/06/22 01:22:41;;;;;;;8.27;3.47;;;;;;;;;;5116763;28;20464;-71
2022/06/22 01:25:19;;;;;;;6.57;3.17;;;;;;;;;;5117182;28;20466;-69
2022/06/22 01:27:48;;;;;;;3.50;3.20;;;;;;;;;;5117762;28;20441;-69
2022/06/22 01:30:21;;;;;;;4.73;3.53;;;;;;;;;;5116713;28;21055;-70
2022/06/22 01:32:48;;;;;;;5.73;3.47;;;;;;;;;;5116910;28;20427;-69
2022/06/22 01:35:18;;;;;;;7.83;5.67;;;;;;;;;;5116396;28;20434;-69
2022/06/22 01:37:45;;;;;;;3.80;3.40;;;;;;;;;;5116744;28;20857;-70
2022/06/22 01:40:16;;;;;;;5.93;4.10;;;;;;;;;;5116822;28;20437;-70
2022/06/22 01:42:47;;;;;;;7.20;3.53;;;;;;;;;;5116327;28;20538;-69
2022/06/22 01:45:19;;;;;;;4.70;3.30;;;;;;;;;;5116270;28;20464;-69
2022/06/22 01:47:49;;;;;;;4.00;3.23;;;;;;;;;;5116898;28;20449;-69
2022/06/22 01:50:19;;;;;;;3.97;3.53;;;;;;;;;;5116683;28;20936;-69
2022/06/22 01:52:53;;;;;;;6.63;4.00;;;;;;;;;;5116543;28;20427;-69
2022/06/22 01:55:27;;;;;;;4.50;4.07;;;;;;;;;;5116354;28;20452;-69
2022/06/22 01:57:58;;;;;;;4.60;4.20;;;;;;;;;;5116097;28;20518;-69
2022/06/22 02:00:26;;;;;;;6.20;3.67;;;;;;;;;;5116528;28;20507;-68
2022/06/22 02:02:56;;;;;;;8.57;4.33;;;;;;;;;;5115979;28;20532;-68
2022/06/22 02:05:27;;;;;;;7.80;4.47;;;;;;;;;;5116100;28;20435;-69
2022/06/22 02:07:57;;;;;;;7.37;3.90;;;;;;;;;;5116142;28;20522;-68
2022/06/22 02:10:30;;;;;;;5.27;3.90;;;;;;;;;;5115313;28;20797;-68
2022/06/22 02:13:00;;;;;;;5.20;4.50;;;;;;;;;;5115851;28;20518;-69
2022/06/22 02:15:44;;;;;;;9.40;4.77;;;;;;;;;;5116007;28;20908;-68
2022/06/22 02:18:12;;;;;;;4.90;4.10;;;;;;;;;;5116616;28;20459;-68
2022/06/22 02:20:39;;;;;;;7.80;4.13;;;;;;;;;;5115984;28;20444;-68
2022/06/22 02:23:10;;;;;;;7.10;4.90;;;;;;;;;;5115609;28;20531;-68
2022/06/22 02:25:40;;;;;;;6.57;4.87;;;;;;;;;;5115507;28;20432;-68
2022/06/22 02:28:08;;;;;;;8.63;4.20;;;;;;;;;;5115797;28;20529;-68
2022/06/22 02:30:36;;;;;;;7.27;4.63;;;;;;;;;;5115814;28;20482;-68
2022/06/22 02:33:04;;;;;;;5.80;4.40;;;;;;;;;;5115667;28;20435;-68
2022/06/22 02:35:31;;;;;;;5.20;4.80;;;;;;;;;;5115282;28;20477;-68
2022/06/22 02:38:06;;;;;;;4.80;4.40;;;;;;;;;;5115631;28;20443;-69
2022/06/22 02:44:29;;;;;;;6.80;4.60;;;;;;;;;;5115783;28;20451;-68
2022/06/22 02:46:05;;;;;;;10.40;5.63;;;;;;;;;;5081264;28;20904;-69
2022/06/22 02:48:36;;;;;;;11.37;5.00;;;;;;;;;;5115303;28;20874;-68
2022/06/22 02:51:07;;;;;;;8.30;5.53;;;;;;;;;;5115755;28;20471;-69
2022/06/22 02:53:36;;;;;;;6.20;5.67;;;;;;;;;;5115095;28;20434;-69
2022/06/22 02:56:05;;;;;;;10.10;6.40;;;;;;;;;;5115336;28;20447;-68
2022/06/22 02:58:33;;;;;;;10.33;6.67;;;;;;;;;;5115138;28;20483;-69
2022/06/22 03:01:01;;;;;;;11.60;5.73;;;;;;;;;;5115372;28;20877;-68
2022/06/22 03:03:30;;;;;;;8.07;6.97;;;;;;;;;;5115082;28;20457;-68
2022/06/22 03:05:58;;;;;;;6.90;6.20;;;;;;;;;;5114997;28;20476;-69
2022/06/22 03:08:26;;;;;;;7.23;6.27;;;;;;;;;;5115017;28;20531;-68
2022/06/22 03:10:56;;;;;;;10.33;6.83;;;;;;;;;;5114774;28;20475;-68
2022/06/22 03:13:31;;;;;;;8.00;6.87;;;;;;;;;;5114985;28;20826;-68
2022/06/22 03:15:58;;;;;;;12.87;6.90;;;;;;;;;;5115012;28;20427;-69
2022/06/22 03:18:28;;;;;;;14.77;6.47;;;;;;;;;;5115446;28;20541;-69
2022/06/22 03:20:59;;;;;;;11.70;6.80;;;;;;;;;;5113316;28;20888;-69
2022/06/22 03:23:29;;;;;;;7.83;6.33;;;;;;;;;;5114972;28;20428;-68
2022/06/22 03:25:58;;;;;;;9.83;6.63;;;;;;;;;;5114969;28;20453;-69
2022/06/22 03:28:30;;;;;;;7.90;6.63;;;;;;;;;;5114632;28;20925;-69
2022/06/22 03:31:00;;;;;;;7.43;6.07;;;;;;;;;;5114811;28;20467;-69
2022/06/22 03:33:30;;;;;;;9.67;6.93;;;;;;;;;;5114164;28;20944;-69
2022/06/22 03:36:01;;;;;;;9.13;7.40;;;;;;;;;;5114126;28;20515;-71
2022/06/22 03:38:31;;;;;;;7.73;6.97;;;;;;;;;;5114194;28;20463;-69
2022/06/22 03:41:00;;;;;;;13.63;6.90;;;;;;;;;;5114012;28;20451;-69
2022/06/22 03:43:30;;;;;;;8.57;7.20;;;;;;;;;;5114099;28;20951;-69
2022/06/22 03:45:59;;;;;;;11.70;6.43;;;;;;;;;;5114405;28;20535;-70
2022/06/22 03:48:29;;;;;;;9.70;6.10;;;;;;;;;;5114470;28;20448;-68
2022/06/22 03:50:58;;;;;;;12.20;6.97;;;;;;;;;;5114455;28;20545;-69
2022/06/22 03:53:34;;;;;;;7.30;6.43;;;;;;;;;;5113963;28;20518;-69
2022/06/22 03:56:04;;;;;;;11.80;6.63;;;;;;;;;;5114129;28;20523;-68
2022/06/22 03:58:32;;;;;;;9.90;7.00;;;;;;;;;;5113864;28;20486;-68
2022/06/22 04:01:00;;;;;;;7.80;7.10;;;;;;;;;;5114059;28;20524;-67
2022/06/22 04:03:28;;;;;;;10.70;6.50;;;;;;;;;;5114161;28;20527;-68
2022/06/22 04:05:56;;;;;;;9.43;6.40;;;;;;;;;;5121054;27;20457;-68
2022/06/22 04:08:26;;;;;;;8.43;6.00;;;;;;;;;;5133979;27;20450;-68
2022/06/22 04:10:57;;;;;;;9.03;6.63;;;;;;;;;;5133733;28;20977;-68
2022/06/22 04:13:29;;;;;;;7.63;6.30;;;;;;;;;;5133807;28;20453;-68
2022/06/22 04:15:59;;;;;;;6.17;5.57;;;;;;;;;;5133410;28;20519;-68
2022/06/22 04:18:29;;;;;;;8.47;6.30;;;;;;;;;;5134632;28;20444;-68
2022/06/22 04:20:59;;;;;;;5.70;5.30;;;;;;;;;;5133655;28;20453;-68
2022/06/22 04:23:30;;;;;;;6.07;5.43;;;;;;;;;;5133662;28;20991;-69
2022/06/22 04:26:01;;;;;;;5.23;4.37;;;;;;;;;;5133977;28;20458;-69
2022/06/22 04:28:30;;;;;;;9.50;5.10;;;;;;;;;;5133668;28;20918;-69
2022/06/22 04:31:02;;;;;;;6.10;4.67;;;;;;;;;;5134006;28;20470;-66
2022/06/22 04:33:32;;;;;;;5.87;4.80;;;;;;;;;;5137185;27;20983;-66
2022/06/22 04:36:02;;;;;;;11.13;5.73;;;;;;;;;;5127970;27;20439;-69
2022/06/22 04:38:34;;;;;;;6.97;5.80;;;;;;;;;;5117329;28;20908;-69
2022/06/22 04:41:04;;;;;;;7.10;5.03;;;;;;;;;;5117182;28;20528;-68
2022/06/22 04:43:32;;;;;;;5.57;4.70;;;;;;;;;;5117330;28;20782;-69
2022/06/22 04:45:59;;;;;;;10.53;4.60;;;;;;;;;;5116621;28;20492;-68
2022/06/22 04:48:28;;;;;;;6.13;4.77;;;;;;;;;;5116716;28;21017;-69
2022/06/22 04:50:58;;;;;;;6.00;4.07;;;;;;;;;;5117093;28;20955;-69
2022/06/22 04:53:29;;;;;;;6.50;4.73;;;;;;;;;;5116917;28;20535;-69
2022/06/22 04:55:57;;;;;;;3.83;3.53;;;;;;;;;;5117164;28;20521;-69
2022/06/22 04:58:34;;;;;;;9.03;3.60;;;;;;;;;;5117381;28;20519;-67
2022/06/22 05:01:01;;;;;;;6.70;3.97;;;;;;;;;;5117338;28;20435;-67
2022/06/22 05:03:30;;;;;;;5.83;3.40;;;;;;;;;;5117146;28;20447;-67
2022/06/22 05:05:58;;;;;;;6.10;3.60;;;;;;;;;;5117192;28;20958;-68
2022/06/22 05:08:27;;;;;;;6.90;3.90;;;;;;;;;;5116584;28;20488;-68
2022/06/22 05:10:56;;;;;;;5.07;3.57;;;;;;;;;;5116553;28;20484;-68
2022/06/22 05:13:26;;;;;;;4.20;3.60;;;;;;;;;;5116873;28;20477;-68
2022/06/22 05:15:56;;;;;;;4.80;3.47;;;;;;;;;;5116873;28;20436;-68
2022/06/22 05:18:25;;;;;;;3.50;3.07;;;;;;;;;;5117110;28;20510;-68
2022/06/22 05:20:55;;;;;;;4.90;4.50;;;;;;;;;;5117407;28;20443;-74
2022/06/22 05:23:23;;;;;;;7.50;3.70;;;;;;;;;;5116699;28;20428;-68
2022/06/22 05:25:52;;;;;;;3.70;3.20;;;;;;;;;;5117059;28;20523;-67
2022/06/22 05:28:23;;;;;;;4.93;3.53;;;;;;;;;;5116343;28;20441;-67
2022/06/22 05:30:52;;;;;;;5.03;3.30;;;;;;;;;;5116446;28;20478;-67
2022/06/22 05:33:22;;;;;;;3.90;3.30;;;;;;;;;;5116348;28;20479;-67
2022/06/22 05:35:50;;;;;;;4.57;3.30;;;;;;;;;;5116398;28;20516;-68
2022/06/22 05:38:18;;;;;;;9.80;3.40;;;;;;;;;;5116817;28;20979;-68
2022/06/22 05:40:47;;;;;;;8.47;4.50;;;;;;;;;;5116963;28;20443;-69
2022/06/22 05:43:14;;;;;;;4.93;2.93;;;;;;;;;;5115756;28;20448;-68
2022/06/22 05:45:45;;;;;;;2.77;2.50;;;;;;;;;;5116221;28;20472;-68
2022/06/22 05:48:13;;;;;;;6.43;3.10;;;;;;;;;;5116619;28;20927;-68
2022/06/22 05:50:43;;;;;;;6.70;3.67;;;;;;;;;;5117083;28;20545;-68
2022/06/22 05:53:12;;;;;;;2.83;2.60;;;;;;;;;;5116400;28;20507;-68
2022/06/22 05:55:43;;;;;;;8.63;3.00;;;;;;;;;;5116114;28;20474;-68
2022/06/22 05:58:14;;;;;;;6.00;2.93;;;;;;;;;;5116233;28;20439;-68
2022/06/22 06:00:44;;;;;;;6.90;3.20;;;;;;;;;;5116755;28;20510;-69
2022/06/22 06:03:25;;;;;;;4.50;3.00;;;;;;;;;;5116143;28;20442;-69
2022/06/22 06:05:57;;;;;;;6.13;2.80;;;;;;;;;;5115993;28;20433;-69
2022/06/22 06:08:26;;;;;;;5.90;2.53;;;;;;;;;;5115972;28;20467;-69
2022/06/22 06:10:54;;;;;;;7.10;2.90;;;;;;;;;;5115720;28;20566;-68
2022/06/22 06:13:23;;;;;;;3.60;3.07;;;;;;;;;;5115719;28;20444;-69
2022/06/22 06:15:52;;;;;;;5.43;2.57;;;;;;;;;;5115770;28;20480;-69
2022/06/22 06:18:21;;;;;;;4.00;2.60;;;;;;;;;;5116199;28;20797;-68
2022/06/22 06:20:51;;;;;;;2.70;2.50;;;;;;;;;;5116004;28;20858;-69
2022/06/22 06:23:22;;;;;;;3.13;2.83;;;;;;;;;;5115510;28;20526;-66
2022/06/22 06:28:39;;;;;;;3.70;2.90;;;;;;;;;;5115982;28;20799;-68
2022/06/22 06:31:09;;;;;;;5.93;3.00;;;;;;;;;;5115764;28;20467;-68
2022/06/22 06:33:37;;;;;;;4.13;2.60;;;;;;;;;;5115626;28;20471;-69
2022/06/22 06:36:08;;;;;;;4.80;2.83;;;;;;;;;;5115781;28;20471;-69
2022/06/22 06:38:39;;;;;;;3.37;2.87;;;;;;;;;;5115582;28;20498;-69
2022/06/22 06:41:10;;;;;;;3.00;2.47;;;;;;;;;;5116178;28;20888;-68
2022/06/22 06:43:40;;;;;;;5.27;2.63;;;;;;;;;;5115547;28;20432;-69
2022/06/22 06:46:13;;;;;;;2.50;2.30;;;;;;;;;;5115596;28;20515;-68
2022/06/22 06:48:41;;;;;;;2.80;2.47;;;;;;;;;;5114937;28;20538;-68
2022/06/22 06:51:11;;;;;;;4.10;2.73;;;;;;;;;;5115203;28;20585;-69
2022/06/22 06:53:42;;;;;;;4.53;2.70;;;;;;;;;;5115717;28;20781;-68
2022/06/22 06:56:14;;;;;;;6.93;3.00;;;;;;;;;;5114707;28;20996;-69
2022/06/22 06:58:43;;;;;;;3.00;2.53;;;;;;;;;;5114771;28;20510;-68
2022/06/22 07:01:16;;;;;;;3.83;3.27;;;;;;;;;;5115004;28;20457;-69
2022/06/22 07:03:43;;;;;;;4.87;2.60;;;;;;;;;;5114734;28;20428;-66
2022/06/22 07:06:11;;;;;;;3.97;2.83;;;;;;;;;;5115048;28;20520;-67
2022/06/22 07:08:41;;;;;;;3.53;2.50;;;;;;;;;;5114519;28;20451;-67
2022/06/22 07:11:13;;;;;;;3.47;2.90;;;;;;;;;;5115452;28;20481;-66
2022/06/22 07:13:43;;;;;;;3.50;2.70;;;;;;;;;;5115245;28;20472;-68
2022/06/22 07:16:14;;;;;;;6.20;2.37;;;;;;;;;;5114640;28;20461;-67
2022/06/22 07:18:43;;;;;;;5.10;2.87;;;;;;;;;;5115368;28;20448;-67
2022/06/22 07:21:13;;;;;;;5.37;2.40;;;;;;;;;;5114482;28;20538;-67
2022/06/22 07:23:44;;;;;;;10.23;2.67;;;;;;;;;;5114952;28;20424;-67
2022/06/22 07:26:15;;;;;;;5.33;2.57;;;;;;;;;;5115022;28;20436;-67
2022/06/22 07:28:45;;;;;;;8.73;2.67;;;;;;;;;;5114943;28;20433;-67
2022/06/22 07:31:16;;;;;;;2.80;2.60;;;;;;;;;;5115087;28;20463;-67
2022/06/22 07:33:45;;;;;;;4.73;2.53;;;;;;;;;;5114840;28;20429;-67
2022/06/22 07:36:22;;;;;;;4.30;2.60;;;;;;;;;;5114666;28;20437;-68
2022/06/22 07:38:53;;;;;;;2.87;2.47;;;;;;;;;;5114607;28;20876;-67
2022/06/22 07:41:22;;;;;;;8.93;2.87;;;;;;;;;;5114204;28;20928;-68
2022/06/22 07:43:51;;;;;;;2.93;2.60;;;;;;;;;;5114059;28;20434;-67
2022/06/22 07:46:22;;;;;;;4.20;2.50;;;;;;;;;;5114313;28;20436;-69
2022/06/22 07:48:51;;;;;;;6.50;3.00;;;;;;;;;;5114521;28;20506;-68
2022/06/22 07:51:23;;;;;;;5.93;2.33;;;;;;;;;;5113799;28;20567;-67
2022/06/22 07:53:55;;;;;;;3.20;2.50;;;;;;;;;;5113861;28;20432;-68
2022/06/22 07:56:26;;;;;;;3.70;2.80;;;;;;;;;;5114533;28;20523;-68
2022/06/22 07:58:54;;;;;;;3.00;2.70;;;;;;;;;;5113818;28;20439;-67
2022/06/22 08:01:25;;;;;;;3.60;2.50;;;;;;;;;;5114162;28;20893;-68
2022/06/22 08:03:57;;;;;;;2.30;2.07;;;;;;;;;;5114058;28;20443;-67
2022/06/22 08:06:27;;;;;;;4.87;2.40;;;;;;;;;;5113639;28;20516;-68
2022/06/22 08:08:58;;;;;;;4.80;2.33;;;;;;;;;;5114010;28;20484;-68
2022/06/22 08:11:28;;;;;;;2.43;1.97;;;;;;;;;;5114386;28;20902;-68
2022/06/22 08:13:58;;;;;;;5.10;2.40;;;;;;;;;;5113847;28;20530;-67
2022/06/22 08:16:27;;;;;;;2.47;2.23;;;;;;;;;;5113332;28;20448;-68
2022/06/22 08:18:55;;;;;;;3.50;2.23;;;;;;;;;;5113560;28;20474;-68
2022/06/22 08:21:23;;;;;;;5.70;2.10;;;;;;;;;;5113624;28;20441;-68
2022/06/22 08:23:50;;;;;;;3.37;2.47;;;;;;;;;;5113909;28;20473;-68
2022/06/22 08:26:21;;;;;;;6.13;2.50;;;;;;;;;;5113961;28;20854;-68
2022/06/22 08:28:49;;;;;;;2.40;2.20;;;;;;;;;;5113657;28;20445;-68
2022/06/22 08:31:17;;;;;;;5.40;2.40;;;;;;;;;;5113794;28;20468;-68
2022/06/22 08:33:46;;;;;;;5.33;2.20;;;;;;;;;;5114068;28;20521;-68
2022/06/22 08:36:16;;;;;;;4.00;2.20;;;;;;;;;;5113723;28;20583;-68
2022/06/22 08:38:46;;;;;;;6.23;3.27;;;;;;;;;;5113989;28;20448;-68
2022/06/22 08:41:21;;;;;;;4.80;2.20;;;;;;;;;;5113460;28;20820;-68
2022/06/22 08:43:53;;;;;;;5.50;2.40;;;;;;;;;;5113739;28;20430;-68
2022/06/22 08:46:35;;;;;;;5.00;2.47;;;;;;;;;;5113728;28;20465;-68
2022/06/22 08:49:26;;;;;;;3.53;2.27;;;;;;;;;;5110655;28;20864;-68
2022/06/22 08:52:02;;;;;;;3.40;2.60;;;;;;;;;;5038284;28;20474;-68
2022/06/22 08:54:43;;;;;;;3.80;2.43;;;;;;;;;;5114293;28;20466;-67
2022/06/22 08:57:13;;;;;;;5.07;2.80;;;;;;;;;;5114128;28;20427;-69
2022/06/22 08:59:51;;;;;;;6.27;2.37;;;;;;;;;;5113734;28;20489;-68
2022/06/22 09:02:26;;;;;;;2.83;2.20;;;;;;;;;;5114126;28;20455;-68
2022/06/22 09:05:01;;;;;;;4.13;2.40;;;;;;;;;;5113090;28;20429;-68
2022/06/22 09:07:37;;;;;;;2.60;2.10;;;;;;;;;;5113269;28;20427;-68
2022/06/22 09:10:14;;;;;;;3.00;2.17;;;;;;;;;;5113465;28;20427;-68
2022/06/22 09:12:48;;;;;;;3.93;2.57;;;;;;;;;;5113620;28;20561;-68
2022/06/22 09:15:32;;;;;;;3.93;2.60;;;;;;;;;;5113215;28;20918;-68
2022/06/22 09:18:14;;;;;;;6.33;2.37;;;;;;;;;;5114886;28;20525;-68
2022/06/22 09:20:52;;;;;;;3.77;2.60;;;;;;;;;;5100238;28;20537;-68
2022/06/22 09:23:26;;;;;;;3.43;2.43;;;;;;;;;;5117201;28;20428;-68
2022/06/22 09:26:00;;;;;;;11.43;2.90;;;;;;;;;;5116720;28;20431;-68
2022/06/22 09:28:28;;;;;;;2.53;2.20;;;;;;;;;;5117146;28;20451;-68
2022/06/22 09:31:02;;;;;;;6.67;2.30;;;;;;;;;;5117462;28;20442;-69
2022/06/22 09:33:40;;;;;;;4.80;3.10;;;;;;;;;;5117200;28;20966;-68
2022/06/22 09:36:15;;;;;;;5.50;1.93;;;;;;;;;;5116501;28;20514;-68
2022/06/22 09:38:50;;;;;;;4.70;3.20;;;;;;;;;;5117079;28;20454;-68
2022/06/22 09:41:22;;;;;;;12.03;2.93;;;;;;;;;;5116695;28;20994;-68
2022/06/22 09:44:02;;;;;;;2.43;2.20;;;;;;;;;;5116943;28;20512;-68
2022/06/22 09:46:50;;;;;;;4.60;2.43;;;;;;;;;;5116547;28;20462;-68
2022/06/22 09:49:30;;;;;;;4.07;2.53;;;;;;;;;;5082427;28;20449;-68
2022/06/22 09:52:13;;;;;;;3.87;2.27;;;;;;;;;;5116043;28;20474;-68
2022/06/22 09:57:49;;;;;;;3.73;2.50;;;;;;;;;;5116348;28;20843;-68
2022/06/22 10:00:19;;;;;;;5.40;2.40;;;;;;;;;;5116134;28;20995;-68
2022/06/22 10:03:04;;;;;;;6.63;2.00;;;;;;;;;;5116436;28;20427;-68
2022/06/22 10:05:58;;;;;;;3.10;2.30;;;;;;;;;;5116069;28;20423;-68
2022/06/22 10:08:32;;;;;;;2.90;1.80;;;;;;;;;;5116424;28;20419;-68
2022/06/22 10:11:02;;;;;;;4.27;2.67;;;;;;;;;;5116375;28;20430;-68
2022/06/22 10:13:39;;;;;;;5.60;2.40;;;;;;;;;;5116532;28;20431;-68
2022/06/22 10:16:12;;;;;;;3.00;2.67;;;;;;;;;;5116121;28;20427;-68
2022/06/22 10:18:50;;;;;;;4.60;2.70;;;;;;;;;;5115657;28;20446;-68
2022/06/22 10:21:21;;;;;;;6.00;2.87;;;;;;;;;;5116052;28;20436;-69
2022/06/22 10:24:06;;;;;;;5.20;2.70;;;;;;;;;;5116073;28;21050;-68
2022/06/22 10:26:41;;;;;;;3.90;2.27;;;;;;;;;;5115238;28;20439;-68
2022/06/22 10:29:24;;;;;;;4.10;2.20;;;;;;;;;;5116068;28;20450;-68
2022/06/22 10:31:58;;;;;;;2.60;2.27;;;;;;;;;;5112849;28;20843;-68
2022/06/22 10:34:31;;;;;;;5.23;2.67;;;;;;;;;;5115887;28;20465;-68
2022/06/22 10:37:16;;;;;;;2.83;2.20;;;;;;;;;;5115660;28;20418;-68
2022/06/22 10:40:00;;;;;;;2.63;2.30;;;;;;;;;;5115287;28;20466;-68
2022/06/22 10:45:29;;;;;;;8.20;3.90;;;;;;;;;;5115546;28;20902;-68
2022/06/22 10:48:11;;;;;;;7.00;2.60;;;;;;;;;;5114939;28;20998;-68
2022/06/22 10:50:42;;;;;;;3.37;2.43;;;;;;;;;;5115298;28;20466;-68
2022/06/22 10:53:27;;;;;;;3.73;2.57;;;;;;;;;;5114912;28;20472;-68
2022/06/22 10:56:02;;;;;;;3.03;2.23;;;;;;;;;;5115217;28;20432;-67
2022/06/22 10:58:47;;;;;;;6.93;2.47;;;;;;;;;;5114986;28;20423;-68
2022/06/22 11:01:28;;;;;;;5.00;2.30;;;;;;;;;;5114471;28;20434;-68
2022/06/22 11:04:21;;;;;;;4.77;2.27;;;;;;;;;;5115267;28;20433;-69
2022/06/22 11:06:57;;;;;;;6.83;2.60;;;;;;;;;;5114643;28;20425;-68
2022/06/22 11:09:33;;;;;;;4.00;2.70;;;;;;;;;;5115104;28;20472;-68
2022/06/22 11:12:16;;;;;;;3.10;2.00;;;;;;;;;;5114959;28;20485;-68
2022/06/22 11:14:57;;;;;;;6.20;2.60;;;;;;;;;;5112739;28;20535;-68
2022/06/22 11:17:40;;;;;;;2.30;2.03;;;;;;;;;;5115329;28;20468;-68
2022/06/22 11:20:21;;;;;;;2.97;2.30;;;;;;;;;;5115262;28;20754;-68
2022/06/22 11:22:50;;;;;;;6.23;2.40;;;;;;;;;;5114486;28;20941;-68
2022/06/22 11:31:27;;;;;;;5.50;2.30;;;;;;;;;;5114540;28;20400;-68
2022/06/22 11:34:06;;;;;;;2.30;2.10;;;;;;;;;;5114831;28;20485;-68
2022/06/22 11:36:41;;;;;;;5.57;2.27;;;;;;;;;;5115074;28;20841;-68
2022/06/22 11:39:19;;;;;;;3.30;1.90;;;;;;;;;;5114695;28;20491;-68
2022/06/22 11:42:04;;;;;;;3.77;1.90;;;;;;;;;;5113988;28;20435;-66
2022/06/22 11:45:49;;;;;;;3.30;1.90;;;;;;;;;;5101141;28;20530;-66
2022/06/22 11:47:40;;;;;;;2.70;1.70;;;;;;;;;;5114173;28;20480;-66
2022/06/22 11:50:16;;;;;;;2.73;2.17;;;;;;;;;;5114036;28;20968;-67
2022/06/22 11:52:48;;;;;;;6.83;1.93;;;;;;;;;;5114219;28;20470;-67
2022/06/22 11:55:20;;;;;;;1.80;1.53;;;;;;;;;;5113950;28;20490;-67
2022/06/22 11:58:01;;;;;;;3.83;1.63;;;;;;;;;;5113994;28;20457;-67
2022/06/22 12:00:34;;;;;;;5.43;2.20;;;;;;;;;;5113838;28;20428;-68
2022/06/22 12:03:20;;;;;;;2.57;1.93;;;;;;;;;;5114299;28;20433;-68
2022/06/22 12:05:56;;;;;;;1.83;1.73;;;;;;;;;;5113770;28;20436;-67
2022/06/22 12:08:28;;;;;;;3.17;2.07;;;;;;;;;;5114273;28;20460;-68
2022/06/22 12:11:02;;;;;;;3.40;2.00;;;;;;;;;;5114349;28;20825;-68
2022/06/22 12:13:38;;;;;;;4.40;1.90;;;;;;;;;;5114012;28;20824;-67
2022/06/22 12:16:17;;;;;;;2.80;2.20;;;;;;;;;;5114244;28;20423;-68
2022/06/22 12:18:51;;;;;;;2.73;2.00;;;;;;;;;;5113458;28;20447;-67
2022/06/22 12:21:26;;;;;;;4.77;1.80;;;;;;;;;;5114113;28;20487;-68
2022/06/22 12:23:56;;;;;;;4.77;2.33;;;;;;;;;;5113990;28;20519;-69
2022/06/22 12:26:32;;;;;;;3.37;2.10;;;;;;;;;;5113901;28;20437;-69
2022/06/22 12:29:15;;;;;;;2.63;2.03;;;;;;;;;;5113560;28;20433;-69
2022/06/22 12:31:47;;;;;;;2.97;2.10;;;;;;;;;;5113523;28;20425;-69
2022/06/22 12:34:16;;;;;;;2.27;2.07;;;;;;;;;;5113406;28;20433;-68
2022/06/22 12:36:47;;;;;;;4.57;2.33;;;;;;;;;;5113815;28;20497;-70
2022/06/22 12:39:17;;;;;;;3.03;2.13;;;;;;;;;;5113427;28;20507;-67
2022/06/22 12:41:53;;;;;;;3.50;2.20;;;;;;;;;;5113550;28;20968;-71
2022/06/22 12:44:42;;;;;;;2.53;2.33;;;;;;;;;;5113307;28;20436;-70
2022/06/22 12:47:18;;;;;;;3.00;2.60;;;;;;;;;;5107147;28;20446;-69
2022/06/22 12:49:50;;;;;;;2.47;2.27;;;;;;;;;;5113372;28;20523;-70
2022/06/22 12:52:21;;;;;;;3.30;1.70;;;;;;;;;;5113727;28;20488;-71
2022/06/22 12:54:52;;;;;;;6.67;2.20;;;;;;;;;;5118100;28;20411;-72
2022/06/22 12:57:22;;;;;;;3.60;2.00;;;;;;;;;;5117406;28;20947;-71
2022/06/22 12:59:51;;;;;;;2.87;2.07;;;;;;;;;;5117338;28;20435;-73
2022/06/22 13:02:20;;;;;;;2.03;1.87;;;;;;;;;;5117659;28;20488;-72
2022/06/22 13:04:49;;;;;;;2.50;2.30;;;;;;;;;;5117151;28;20432;-71
2022/06/22 13:07:18;;;;;;;2.60;1.93;;;;;;;;;;5124486;27;20440;-71
2022/06/22 13:09:47;;;;;;;3.97;1.77;;;;;;;;;;5136898;27;20512;-72
2022/06/22 13:12:19;;;;;;;2.90;2.13;;;;;;;;;;5137011;27;20474;-70
2022/06/22 13:14:50;;;;;;;3.13;1.90;;;;;;;;;;5137130;27;20430;-70
2022/06/22 13:17:27;;;;;;;6.57;2.27;;;;;;;;;;5136992;27;20429;-71
2022/06/22 13:20:02;;;;;;;3.03;2.40;;;;;;;;;;5136493;27;20410;-70
2022/06/22 13:22:33;;;;;;;3.03;2.20;;;;;;;;;;5136650;27;20780;-70
2022/06/22 13:25:09;;;;;;;2.40;2.10;;;;;;;;;;5136922;27;20911;-69
2022/06/22 13:27:42;;;;;;;6.00;2.67;;;;;;;;;;5136625;27;20507;-70
2022/06/22 13:30:15;;;;;;;2.83;2.20;;;;;;;;;;5136930;27;20491;-70
2022/06/22 13:32:56;;;;;;;4.30;2.00;;;;;;;;;;5137005;27;20468;-70
2022/06/22 13:35:28;;;;;;;4.00;3.17;;;;;;;;;;5137124;27;20488;-70
2022/06/22 13:38:01;;;;;;;4.37;2.07;;;;;;;;;;5120994;27;20527;-71
2022/06/22 13:40:35;;;;;;;2.60;1.77;;;;;;;;;;5115763;28;20402;-70
2022/06/22 13:43:17;;;;;;;2.53;2.33;;;;;;;;;;5116467;28;20439;-68
2022/06/22 13:45:50;;;;;;;4.27;2.30;;;;;;;;;;5099226;28;20421;-70
2022/06/22 13:48:19;;;;;;;4.77;1.90;;;;;;;;;;5116235;28;20967;-70
2022/06/22 13:51:09;;;;;;;4.33;2.20;;;;;;;;;;5115981;28;20470;-70
2022/06/22 13:53:45;;;;;;;4.80;2.10;;;;;;;;;;5115627;28;20484;-71
2022/06/22 13:56:16;;;;;;;2.47;2.00;;;;;;;;;;5116080;28;20417;-71
2022/06/22 13:58:46;;;;;;;4.90;2.20;;;;;;;;;;5115979;28;20398;-70
2022/06/22 14:01:16;;;;;;;3.47;1.80;;;;;;;;;;5116395;28;20441;-71
2022/06/22 14:03:47;;;;;;;4.90;1.90;;;;;;;;;;5115685;28;20422;-71
2022/06/22 14:06:16;;;;;;;3.77;1.80;;;;;;;;;;5114781;28;20435;-70
2022/06/22 14:08:52;;;;;;;2.47;2.17;;;;;;;;;;5115626;28;20439;-71
2022/06/22 14:11:26;;;;;;;6.03;2.00;;;;;;;;;;5115367;28;20843;-71
2022/06/22 14:13:56;;;;;;;2.47;1.83;;;;;;;;;;5115548;28;20840;-68
2022/06/22 14:16:27;;;;;;;3.57;2.43;;;;;;;;;;5115283;28;20923;-68
2022/06/22 14:18:57;;;;;;;5.47;2.53;;;;;;;;;;5116471;28;20482;-68
2022/06/22 14:21:29;;;;;;;2.70;1.80;;;;;;;;;;5116306;28;20439;-68
2022/06/22 14:23:57;;;;;;;1.80;1.70;;;;;;;;;;5115485;28;20903;-70
2022/06/22 14:26:37;;;;;;;6.20;2.33;;;;;;;;;;5115317;28;20446;-70
2022/06/22 14:29:08;;;;;;;4.50;2.33;;;;;;;;;;5115282;28;20510;-69
2022/06/22 14:31:39;;;;;;;2.40;1.90;;;;;;;;;;5115157;28;20437;-70
2022/06/22 14:34:22;;;;;;;2.40;2.00;;;;;;;;;;5115214;28;20557;-70
2022/06/22 14:36:52;;;;;;;2.40;1.70;;;;;;;;;;5115174;28;20485;-70
2022/06/22 14:39:22;;;;;;;3.07;1.63;;;;;;;;;;5115318;28;20492;-70
2022/06/22 14:41:55;;;;;;;2.60;1.90;;;;;;;;;;5115601;28;20486;-70
2022/06/22 14:44:27;;;;;;;4.07;1.60;;;;;;;;;;5115404;28;20767;-69
2022/06/22 14:47:07;;;;;;;4.20;2.27;;;;;;;;;;5115279;28;20496;-70
2022/06/22 14:49:37;;;;;;;2.17;1.97;;;;;;;;;;5114564;28;20815;-70
2022/06/22 14:52:07;;;;;;;3.80;2.30;;;;;;;;;;5114561;28;20950;-70
2022/06/22 14:54:40;;;;;;;3.87;1.70;;;;;;;;;;5114494;28;20520;-70
2022/06/22 14:57:13;;;;;;;2.90;1.90;;;;;;;;;;5114902;28;20981;-71
2022/06/22 14:59:42;;;;;;;2.47;2.27;;;;;;;;;;5115325;28;20504;-70
2022/06/22 15:02:14;;;;;;;4.63;2.67;;;;;;;;;;5114906;28;20450;-71
2022/06/22 15:04:44;;;;;;;3.50;2.30;;;;;;;;;;5114754;28;20438;-70
2022/06/22 15:07:17;;;;;;;2.07;1.60;;;;;;;;;;5114711;28;20521;-70
2022/06/22 15:09:48;;;;;;;4.50;1.70;;;;;;;;;;5114196;28;20431;-70
2022/06/22 15:15:08;;;;;;;2.30;1.83;;;;;;;;;;5114434;28;20759;-70
2022/06/22 15:17:39;;;;;;;2.40;1.90;;;;;;;;;;5114625;28;20454;-70
2022/06/22 15:20:09;;;;;;;2.10;1.90;;;;;;;;;;5114401;28;20414;-70
2022/06/22 15:22:39;;;;;;;2.83;1.77;;;;;;;;;;5114569;28;21242;-70
2022/06/22 15:25:13;;;;;;;2.20;1.47;;;;;;;;;;5114665;28;20435;-69
2022/06/22 15:27:44;;;;;;;3.60;1.50;;;;;;;;;;5113643;28;20467;-70
2022/06/22 15:30:19;;;;;;;1.80;1.50;;;;;;;;;;5114290;28;20459;-70
2022/06/22 15:32:50;;;;;;;2.20;1.77;;;;;;;;;;5114468;28;20427;-70
2022/06/22 15:35:21;;;;;;;7.00;3.20;;;;;;;;;;5114274;28;20438;-70